METAR

Standardisierte Meterological Aerodome Report-Meldungen (METAR-Meldungen) enthalten aktuelle Informationen über die aktuelle Wetterlage an Flugplätzen. Beispiel:

EDDF 040850Z VRB03KT 9999 FEW030 09/01 Q1024 NOSIG

MeldungBedeutungGruppe
EDDFFrankfurt am MainFlugplatzkennung
040850Z4. (des aktuellen Monats) um 08:50 Uhr UTCBeobachtungszeitpunkt
VRB03KTVariable Windrichtung, 3 KnotenWindrichtung und -stärke
9999über 10 km (Maximalangabe)Bodensichtweite
FEW0301/8 bis 2/8 Bewölkung ab einer Höhe von 30 Fuß.Bewölkungsgrad
09/01Temperatur: 9°C, Taupunkt: 1°CTemperatur und Taupunkt
Q1024Luftdruck auf Meereshöhe (QNH) von 1024 hPaLuftdruck
NOSIG„No significant change“Vorhersage
Bedeutung einer METAR-Meldung.
GruppeInhalt
FlugplatzkennungString
BeobachtungszeitpunktDatum in UTC
Windrichtung und -stärkeWindrichtung (290 oder VRB) + n Knoten
BodensichtweiteMeterangabe oder 9999
BewölkungsgradBewölkungsgrad (
FEW = 1/8 bis 2/8
SCT = 3/8 bis 4/8
BKN = 5/8 bis 7/8
OVC = 8/8) + Höhe der Wolkenuntergrenze in Fuß.
Temperatur und Taupunkt(Temperatur in °C)/(Taupunkt in °C)
LuftdruckLuftdruck als Q-Schlüssel
VorhersageVorhersage für die nächsten 2 Stunden
Genauere Beschreibung des Inhalts und Formats einer METAR-Meldung.

Schlagwörter:

Schreibe einen Kommentar

Deine E-Mail-Adresse wird nicht veröffentlicht. Erforderliche Felder sind mit * markiert.